createdAt,value
2019-04-30T00:00:43.201Z,18.70
2019-04-30T00:01:43.188Z,18.60
2019-04-30T00:02:45.302Z,18.70
2019-04-30T00:03:43.175Z,19.10
2019-04-30T00:04:45.161Z,18.90
2019-04-30T00:05:44.995Z,18.70
2019-04-30T00:06:43.161Z,18.90
2019-04-30T00:07:43.156Z,18.40
2019-04-30T00:08:45.051Z,19.10
2019-04-30T00:09:44.866Z,18.20
2019-04-30T00:10:43.132Z,18.50
2019-04-30T00:11:43.130Z,18.80
2019-04-30T00:12:43.125Z,19.70
2019-04-30T00:13:43.144Z,19.50
2019-04-30T00:14:44.838Z,18.10
2019-04-30T00:15:43.114Z,17.70
2019-04-30T00:16:45.043Z,19.50
2019-04-30T00:17:43.099Z,19.50
2019-04-30T00:18:55.392Z,18.30
2019-04-30T00:19:43.084Z,19.00
2019-04-30T00:20:45.296Z,19.80
2019-04-30T00:21:43.066Z,18.50
2019-04-30T00:22:47.181Z,19.10
2019-04-30T00:23:43.056Z,19.10
2019-04-30T00:24:46.894Z,17.70
2019-04-30T00:25:43.097Z,18.30
2019-04-30T00:26:45.043Z,19.30
2019-04-30T00:27:43.051Z,19.40
2019-04-30T00:28:44.369Z,19.40
2019-04-30T00:29:43.023Z,18.80
2019-04-30T00:30:43.985Z,18.80
2019-04-30T00:31:44.701Z,19.50
2019-04-30T00:32:44.014Z,18.50
2019-04-30T00:33:44.920Z,19.50
2019-04-30T00:34:42.995Z,19.80
2019-04-30T00:35:42.987Z,18.60
2019-04-30T00:36:42.978Z,18.30
2019-04-30T00:37:42.978Z,19.60
2019-04-30T00:38:44.727Z,19.70
2019-04-30T00:39:44.343Z,19.50
2019-04-30T00:40:44.684Z,19.60
2019-04-30T00:41:45.920Z,19.40
2019-04-30T00:42:42.946Z,18.80
2019-04-30T00:43:49.284Z,20.00
2019-04-30T00:44:42.931Z,20.30
2019-04-30T00:45:44.854Z,20.20
2019-04-30T00:46:42.925Z,20.30
2019-04-30T00:47:44.541Z,19.80
2019-04-30T00:48:42.907Z,19.70
2019-04-30T00:49:42.907Z,20.60
2019-04-30T00:50:42.900Z,19.90
2019-04-30T00:51:42.899Z,20.70
2019-04-30T00:52:42.891Z,21.00
2019-04-30T00:53:43.806Z,20.70
2019-04-30T00:54:42.876Z,21.30
2019-04-30T00:55:44.999Z,20.80
2019-04-30T00:56:42.863Z,21.20
2019-04-30T00:57:43.931Z,21.30
2019-04-30T00:58:42.855Z,20.90
2019-04-30T00:59:46.532Z,20.60
2019-04-30T01:00:42.840Z,21.20
2019-04-30T01:01:44.295Z,21.80
2019-04-30T01:02:42.823Z,21.30
2019-04-30T01:03:46.434Z,21.90
2019-04-30T01:04:44.865Z,21.50
2019-04-30T01:05:46.491Z,21.20
2019-04-30T01:06:42.800Z,21.50
2019-04-30T01:07:48.687Z,21.40
2019-04-30T01:08:42.792Z,21.80
2019-04-30T01:09:46.517Z,21.50
2019-04-30T01:10:42.783Z,22.10
2019-04-30T01:11:46.934Z,22.30
2019-04-30T01:12:47.347Z,22.50
2019-04-30T01:13:50.206Z,22.30
2019-04-30T01:14:42.758Z,22.30
2019-04-30T01:15:43.966Z,22.60
2019-04-30T01:16:42.741Z,23.00
2019-04-30T01:17:45.298Z,22.50
2019-04-30T01:18:42.733Z,21.90
2019-04-30T01:19:45.921Z,23.10
2019-04-30T01:20:42.717Z,22.10
2019-04-30T01:21:47.014Z,22.80
2019-04-30T01:22:42.710Z,22.40
2019-04-30T01:23:51.861Z,22.70
2019-04-30T01:24:42.699Z,23.30
2019-04-30T01:25:43.155Z,23.70
2019-04-30T01:26:42.684Z,23.00
2019-04-30T01:27:45.582Z,23.30
2019-04-30T01:28:42.672Z,23.60
2019-04-30T01:29:44.358Z,23.30
2019-04-30T01:30:42.663Z,23.40
2019-04-30T01:31:42.656Z,23.90
2019-04-30T01:32:42.650Z,23.80
2019-04-30T01:33:42.638Z,23.30
2019-04-30T01:34:44.233Z,21.90
2019-04-30T01:35:42.632Z,23.20
2019-04-30T01:36:43.526Z,23.20
2019-04-30T01:37:42.627Z,24.20
2019-04-30T01:38:44.807Z,24.70
2019-04-30T01:39:42.605Z,23.50
2019-04-30T01:40:46.976Z,24.90
2019-04-30T01:41:42.597Z,24.90
2019-04-30T01:42:47.990Z,24.30
2019-04-30T01:43:42.584Z,24.20
2019-04-30T01:44:43.572Z,24.30
2019-04-30T01:45:42.566Z,23.70
2019-04-30T01:46:43.289Z,24.00
2019-04-30T01:47:42.557Z,23.70
2019-04-30T01:48:43.670Z,23.60
2019-04-30T01:49:44.771Z,24.20
2019-04-30T01:50:42.543Z,23.50
2019-04-30T01:51:42.535Z,24.70
2019-04-30T01:52:42.528Z,23.40
2019-04-30T01:53:43.585Z,23.40
2019-04-30T01:54:42.520Z,23.70
2019-04-30T01:55:42.513Z,23.50
2019-04-30T01:56:42.507Z,23.90
2019-04-30T01:57:42.495Z,24.60
2019-04-30T01:58:42.490Z,24.10
2019-04-30T01:59:42.482Z,24.30
2019-04-30T02:00:42.476Z,23.90
2019-04-30T02:01:42.475Z,24.20
2019-04-30T02:02:42.469Z,24.90
2019-04-30T02:03:42.466Z,24.70
2019-04-30T02:04:42.460Z,23.90
2019-04-30T02:05:42.449Z,24.50
2019-04-30T02:06:42.442Z,25.20
2019-04-30T02:07:42.441Z,25.30
2019-04-30T02:08:42.439Z,24.80
2019-04-30T02:09:42.423Z,25.00
2019-04-30T02:10:42.420Z,25.50
2019-04-30T02:11:42.411Z,24.00
2019-04-30T02:12:42.404Z,26.70
2019-04-30T02:13:42.406Z,25.60
2019-04-30T02:14:42.397Z,25.20
2019-04-30T02:15:42.391Z,24.50
2019-04-30T02:16:42.385Z,25.30
2019-04-30T02:17:42.373Z,25.00
2019-04-30T02:18:42.368Z,26.10
2019-04-30T02:19:53.661Z,25.00
2019-04-30T02:20:42.359Z,25.10
2019-04-30T02:21:42.356Z,24.90
2019-04-30T02:22:42.349Z,25.50
2019-04-30T02:23:42.345Z,25.10
2019-04-30T02:24:42.333Z,25.70
2019-04-30T02:25:42.331Z,24.20
2019-04-30T02:26:42.326Z,25.20
2019-04-30T02:27:42.316Z,26.10
2019-04-30T02:28:42.309Z,25.60
2019-04-30T02:29:42.300Z,27.00
2019-04-30T02:30:42.296Z,24.50
2019-04-30T02:31:42.290Z,26.50
2019-04-30T02:32:42.288Z,25.20
2019-04-30T02:33:42.291Z,25.60
2019-04-30T02:34:44.199Z,25.00
2019-04-30T02:35:42.269Z,25.50
2019-04-30T02:36:42.266Z,26.30
2019-04-30T02:37:43.460Z,24.90
2019-04-30T02:38:42.249Z,26.30
2019-04-30T02:39:42.249Z,24.10
2019-04-30T02:40:42.679Z,24.80
2019-04-30T02:41:42.228Z,26.00
2019-04-30T02:42:42.226Z,24.20
2019-04-30T02:43:42.212Z,24.70
2019-04-30T02:44:42.207Z,24.40
2019-04-30T02:45:42.228Z,24.20
2019-04-30T02:46:42.199Z,25.00
2019-04-30T02:47:42.192Z,24.60
2019-04-30T02:48:42.187Z,25.60
2019-04-30T02:49:42.183Z,26.10
2019-04-30T02:50:42.176Z,24.20
2019-04-30T02:51:42.168Z,24.10
2019-04-30T02:52:42.175Z,24.30
2019-04-30T02:53:42.150Z,23.70
2019-04-30T02:54:42.146Z,23.30
2019-04-30T02:55:42.143Z,24.40
2019-04-30T02:56:42.137Z,24.50
2019-04-30T02:57:42.126Z,25.00
2019-04-30T02:58:42.120Z,24.90
2019-04-30T02:59:42.116Z,24.50
2019-04-30T03:00:42.111Z,23.80
2019-04-30T03:01:42.107Z,24.50
2019-04-30T03:02:42.101Z,25.10
2019-04-30T03:03:42.664Z,25.30
2019-04-30T03:04:42.091Z,24.80
2019-04-30T03:05:42.080Z,24.60
2019-04-30T03:06:42.074Z,24.50
2019-04-30T03:07:42.065Z,24.10
2019-04-30T03:08:42.060Z,24.80
2019-04-30T03:09:42.055Z,24.90
2019-04-30T03:10:42.076Z,25.80
2019-04-30T03:11:42.038Z,24.10
2019-04-30T03:12:42.038Z,26.10
2019-04-30T03:13:42.854Z,24.70
2019-04-30T03:14:42.024Z,25.60
2019-04-30T03:15:42.021Z,23.80
2019-04-30T03:16:42.016Z,27.00
2019-04-30T03:17:42.003Z,25.70
2019-04-30T03:18:41.998Z,25.50
2019-04-30T03:19:41.991Z,25.30
2019-04-30T03:20:41.987Z,25.00
2019-04-30T03:21:41.982Z,25.10
2019-04-30T03:22:42.000Z,25.10
2019-04-30T03:23:41.968Z,24.30
2019-04-30T03:24:42.941Z,24.90
2019-04-30T03:25:41.974Z,24.90
2019-04-30T03:26:41.944Z,24.40
2019-04-30T03:27:42.566Z,24.70
2019-04-30T03:28:41.939Z,24.60
2019-04-30T03:29:41.925Z,25.00
2019-04-30T03:30:42.644Z,24.60
2019-04-30T03:31:45.124Z,25.10
2019-04-30T03:32:43.033Z,24.50
2019-04-30T03:33:42.744Z,25.30
2019-04-30T03:34:42.805Z,23.30
2019-04-30T03:35:47.837Z,24.80
2019-04-30T03:36:41.889Z,26.30
2019-04-30T03:37:41.877Z,25.10
2019-04-30T03:38:42.806Z,25.60
2019-04-30T03:39:41.868Z,24.30
2019-04-30T03:40:41.863Z,25.40
2019-04-30T03:41:41.886Z,24.90
2019-04-30T03:42:41.848Z,24.80
2019-04-30T03:43:41.837Z,24.20
2019-04-30T03:44:41.830Z,25.60
2019-04-30T03:45:41.831Z,24.60
2019-04-30T03:46:41.826Z,25.20
2019-04-30T03:47:43.158Z,24.90
2019-04-30T03:48:41.813Z,26.30
2019-04-30T03:49:41.813Z,25.40
2019-04-30T03:50:53.268Z,26.20
2019-04-30T03:51:41.787Z,25.50
2019-04-30T03:52:41.782Z,25.00
2019-04-30T03:53:42.689Z,24.80
2019-04-30T03:54:41.773Z,23.70
2019-04-30T03:55:41.769Z,25.40
2019-04-30T03:56:41.763Z,24.40
2019-04-30T03:57:41.752Z,25.70
2019-04-30T03:58:41.746Z,24.40
2019-04-30T03:59:41.751Z,25.00
2019-04-30T04:00:42.490Z,25.20
2019-04-30T04:01:41.726Z,25.10
2019-04-30T04:02:41.720Z,26.40
2019-04-30T04:03:42.266Z,25.50
2019-04-30T04:04:41.704Z,25.70
2019-04-30T04:05:41.702Z,25.30
2019-04-30T04:06:41.696Z,26.50
2019-04-30T04:07:41.689Z,25.30
2019-04-30T04:08:43.472Z,25.10
2019-04-30T04:09:41.672Z,25.60
2019-04-30T04:10:41.670Z,25.60
2019-04-30T04:11:41.664Z,24.40
2019-04-30T04:12:41.659Z,25.10
2019-04-30T04:13:41.665Z,26.10
2019-04-30T04:14:41.648Z,25.70
2019-04-30T04:15:41.637Z,25.50
2019-04-30T04:16:41.631Z,26.20
2019-04-30T04:17:41.651Z,25.40
2019-04-30T04:18:41.622Z,25.20
2019-04-30T04:19:41.633Z,26.50
2019-04-30T04:20:42.943Z,26.00
2019-04-30T04:21:41.600Z,26.20
2019-04-30T04:22:41.591Z,26.30
2019-04-30T04:23:41.587Z,25.70
2019-04-30T04:24:41.577Z,27.50
2019-04-30T04:25:41.574Z,26.10
2019-04-30T04:26:43.907Z,25.90
2019-04-30T04:27:41.566Z,25.70
2019-04-30T04:28:43.565Z,26.80
2019-04-30T04:29:41.557Z,25.80
2019-04-30T04:30:42.989Z,25.70
2019-04-30T04:31:41.538Z,25.60
2019-04-30T04:32:41.535Z,26.70
2019-04-30T04:33:41.522Z,25.90
2019-04-30T04:34:44.816Z,25.60
2019-04-30T04:35:41.507Z,25.60
2019-04-30T04:36:43.404Z,25.50
2019-04-30T04:37:41.498Z,26.70
2019-04-30T04:38:41.496Z,25.80
2019-04-30T04:39:42.106Z,25.50
2019-04-30T04:40:41.479Z,25.70
2019-04-30T04:41:44.168Z,25.80
2019-04-30T04:42:41.463Z,26.20
2019-04-30T04:43:41.458Z,26.20
2019-04-30T04:44:41.452Z,25.70
2019-04-30T04:45:43.779Z,25.10
2019-04-30T04:46:41.441Z,24.80
2019-04-30T04:47:41.432Z,26.10
2019-04-30T04:48:41.426Z,25.20
2019-04-30T04:49:41.423Z,26.00
2019-04-30T04:50:41.416Z,25.80
2019-04-30T04:51:42.296Z,24.30
2019-04-30T04:52:41.401Z,25.60
2019-04-30T04:53:41.390Z,25.80
2019-04-30T04:54:41.385Z,24.30
2019-04-30T04:55:41.389Z,25.70
2019-04-30T04:56:41.374Z,25.20
2019-04-30T04:57:41.371Z,25.40
2019-04-30T04:58:41.367Z,26.20
2019-04-30T04:59:42.538Z,25.10
2019-04-30T05:00:41.353Z,25.20
2019-04-30T05:01:41.340Z,25.90
2019-04-30T05:02:41.331Z,25.50
2019-04-30T05:03:41.331Z,25.50
2019-04-30T05:04:41.329Z,25.70
2019-04-30T05:05:41.314Z,25.30
2019-04-30T05:06:41.314Z,25.60
2019-04-30T05:07:41.304Z,25.80
2019-04-30T05:08:41.299Z,25.30
2019-04-30T05:09:41.295Z,25.50
2019-04-30T05:10:41.287Z,25.20
2019-04-30T05:11:41.281Z,26.40
2019-04-30T05:12:41.274Z,25.50
2019-04-30T05:13:41.266Z,25.80
2019-04-30T05:14:41.259Z,26.00
2019-04-30T05:15:41.249Z,26.40
2019-04-30T05:16:41.244Z,26.10
2019-04-30T05:17:41.241Z,26.10
2019-04-30T05:18:41.234Z,24.70
2019-04-30T05:19:41.226Z,26.90
2019-04-30T05:20:41.755Z,25.20
2019-04-30T05:21:44.544Z,26.50
2019-04-30T05:22:41.211Z,25.80
2019-04-30T05:23:42.674Z,25.20
2019-04-30T05:24:41.202Z,25.60
2019-04-30T05:25:41.190Z,25.90
2019-04-30T05:26:41.184Z,27.20
2019-04-30T05:27:41.180Z,25.50
2019-04-30T05:28:41.172Z,26.60
2019-04-30T05:29:41.173Z,25.60
2019-04-30T05:30:41.163Z,26.60
2019-04-30T05:31:41.155Z,27.00
2019-04-30T05:32:41.149Z,26.70
2019-04-30T05:33:41.142Z,25.70
2019-04-30T05:34:41.133Z,26.70
2019-04-30T05:35:41.131Z,26.40
2019-04-30T05:36:41.123Z,25.90
2019-04-30T05:37:41.113Z,25.70
2019-04-30T05:38:41.115Z,26.20
2019-04-30T05:39:41.103Z,26.40
2019-04-30T05:40:42.497Z,25.30
2019-04-30T05:41:41.225Z,25.80
2019-04-30T05:42:41.089Z,26.90
2019-04-30T05:43:41.084Z,26.50
2019-04-30T05:44:41.080Z,26.60
2019-04-30T05:45:41.067Z,26.80
2019-04-30T05:46:41.062Z,25.60
2019-04-30T05:47:41.055Z,25.80
2019-04-30T05:48:41.047Z,25.30
2019-04-30T05:49:41.049Z,26.60
2019-04-30T05:50:41.038Z,25.90
2019-04-30T05:51:52.880Z,24.80
2019-04-30T05:52:41.024Z,25.70
2019-04-30T05:53:41.022Z,26.90
2019-04-30T05:54:41.016Z,25.20
2019-04-30T05:55:41.013Z,24.90
2019-04-30T05:56:42.730Z,26.10
2019-04-30T05:57:53.136Z,25.90
2019-04-30T05:58:40.990Z,26.40
2019-04-30T05:59:40.985Z,25.90
2019-04-30T06:00:40.976Z,26.10
2019-04-30T06:01:47.873Z,24.80
2019-04-30T06:02:40.969Z,24.70
2019-04-30T06:03:40.965Z,24.90
2019-04-30T06:04:40.959Z,25.60
2019-04-30T06:05:40.951Z,24.50
2019-04-30T06:06:40.945Z,25.50
2019-04-30T06:07:40.942Z,25.10
2019-04-30T06:08:40.939Z,24.50
2019-04-30T06:09:40.927Z,25.00
2019-04-30T06:10:40.922Z,25.30
2019-04-30T06:11:40.914Z,25.90
2019-04-30T06:12:40.908Z,25.30
2019-04-30T06:13:40.907Z,24.70
2019-04-30T06:14:49.001Z,25.80
2019-04-30T06:15:40.894Z,25.40
2019-04-30T06:16:40.889Z,24.80
2019-04-30T06:17:40.880Z,24.50
2019-04-30T06:18:42.208Z,24.30
2019-04-30T06:19:40.871Z,25.10
2019-04-30T06:20:40.867Z,24.10
2019-04-30T06:21:40.864Z,24.60
2019-04-30T06:22:40.859Z,24.40
2019-04-30T06:23:40.852Z,25.00
2019-04-30T06:24:40.846Z,24.30
2019-04-30T06:25:55.314Z,25.00
2019-04-30T06:26:40.838Z,24.10
2019-04-30T06:27:40.834Z,23.40
2019-04-30T06:28:41.652Z,23.10
2019-04-30T06:29:40.823Z,21.60
2019-04-30T06:30:40.816Z,21.60
2019-04-30T06:31:43.166Z,21.80
2019-04-30T06:32:40.811Z,23.10
2019-04-30T06:33:40.810Z,22.40
2019-04-30T06:34:41.935Z,22.20
2019-04-30T06:35:40.809Z,20.80
2019-04-30T06:36:50.987Z,20.80
2019-04-30T06:37:40.801Z,21.90
2019-04-30T06:38:40.803Z,21.40
2019-04-30T06:39:40.807Z,20.00
2019-04-30T06:40:40.804Z,20.90
2019-04-30T06:41:41.070Z,20.80
2019-04-30T06:42:40.798Z,21.10
2019-04-30T06:43:40.795Z,21.00
2019-04-30T06:44:41.909Z,19.80
2019-04-30T06:45:40.801Z,21.50
2019-04-30T06:46:40.807Z,19.90
2019-04-30T06:47:40.804Z,20.40
2019-04-30T06:48:41.854Z,20.10
2019-04-30T06:49:40.799Z,19.80
2019-04-30T06:50:40.803Z,20.90
2019-04-30T06:51:40.807Z,20.60
2019-04-30T06:52:40.807Z,20.60
2019-04-30T06:53:40.812Z,21.00
2019-04-30T06:54:40.814Z,20.50
2019-04-30T06:55:40.814Z,20.30
2019-04-30T06:56:40.815Z,20.50
2019-04-30T06:57:40.820Z,20.00
2019-04-30T06:58:41.369Z,21.00
2019-04-30T06:59:40.823Z,20.70
2019-04-30T07:00:40.826Z,21.00
2019-04-30T07:01:40.822Z,21.80
2019-04-30T07:02:40.824Z,21.50
2019-04-30T07:03:40.826Z,20.60
2019-04-30T07:04:40.829Z,22.90
2019-04-30T07:05:40.836Z,22.90
2019-04-30T07:06:44.134Z,22.70
2019-04-30T07:07:41.750Z,22.70
2019-04-30T07:08:46.761Z,22.20
2019-04-30T07:09:52.146Z,21.80
2019-04-30T07:10:52.713Z,22.80
2019-04-30T07:11:40.855Z,22.70
2019-04-30T07:12:40.858Z,22.80
2019-04-30T07:13:40.856Z,23.20
2019-04-30T07:14:41.963Z,22.90
2019-04-30T07:15:40.861Z,22.50
2019-04-30T07:16:40.864Z,23.90
2019-04-30T07:17:40.876Z,23.60
2019-04-30T07:18:40.879Z,24.90
2019-04-30T07:19:53.478Z,25.10
2019-04-30T07:20:40.885Z,25.00
2019-04-30T07:21:42.903Z,25.00
2019-04-30T07:22:49.369Z,27.50
2019-04-30T07:23:40.898Z,27.00
2019-04-30T07:24:40.946Z,26.80
2019-04-30T07:25:40.910Z,27.90
2019-04-30T07:26:40.916Z,25.80
2019-04-30T07:27:40.920Z,27.30
2019-04-30T07:28:46.935Z,26.80
2019-04-30T07:29:40.926Z,27.60
2019-04-30T07:30:40.993Z,25.90
2019-04-30T07:31:40.934Z,26.30
2019-04-30T07:32:40.939Z,26.90
2019-04-30T07:33:40.935Z,27.00
2019-04-30T07:34:40.939Z,27.70
2019-04-30T07:35:40.943Z,27.10
2019-04-30T07:36:46.800Z,26.30
2019-04-30T07:37:40.951Z,26.60
2019-04-30T07:38:51.710Z,27.50
2019-04-30T07:39:40.960Z,27.20
2019-04-30T07:40:40.962Z,26.10
2019-04-30T07:41:40.959Z,26.10
2019-04-30T07:42:44.916Z,26.80
2019-04-30T07:43:40.968Z,26.70
2019-04-30T07:44:40.967Z,26.90
2019-04-30T07:45:40.976Z,27.00
2019-04-30T07:46:45.254Z,25.40
2019-04-30T07:47:40.965Z,25.90
2019-04-30T07:48:40.967Z,25.40
2019-04-30T07:49:50.905Z,25.90
2019-04-30T07:50:41.759Z,24.70
2019-04-30T07:51:42.075Z,25.70
2019-04-30T07:52:58.154Z,26.20
2019-04-30T07:53:40.969Z,25.50
2019-04-30T07:54:40.971Z,25.60
2019-04-30T07:55:40.976Z,24.90
2019-04-30T07:56:41.842Z,25.20
2019-04-30T07:57:40.980Z,24.20
2019-04-30T07:58:40.980Z,24.60
2019-04-30T07:59:40.978Z,24.10
2019-04-30T08:00:40.982Z,23.00
2019-04-30T08:02:00.614Z,24.40
2019-04-30T08:02:43.684Z,24.40
2019-04-30T08:03:41.404Z,23.40
2019-04-30T08:04:40.988Z,23.10
2019-04-30T08:05:40.989Z,23.00
2019-04-30T08:06:41.041Z,23.30
2019-04-30T08:07:41.058Z,23.70
2019-04-30T08:08:41.232Z,22.70
2019-04-30T08:09:42.282Z,23.40
2019-04-30T08:10:41.005Z,24.10
2019-04-30T08:11:43.413Z,24.00
2019-04-30T08:12:43.453Z,24.20
2019-04-30T08:13:41.578Z,24.00
2019-04-30T08:14:41.013Z,24.90
2019-04-30T08:15:42.354Z,25.00
2019-04-30T08:16:41.030Z,24.40
2019-04-30T08:17:41.027Z,24.60
2019-04-30T08:18:41.034Z,25.70
2019-04-30T08:19:41.219Z,25.80
2019-04-30T08:20:41.052Z,24.30
2019-04-30T08:21:41.062Z,24.20
2019-04-30T08:22:41.212Z,26.10
2019-04-30T08:23:41.079Z,24.80
2019-04-30T08:24:41.090Z,25.80
2019-04-30T08:25:41.093Z,27.00
2019-04-30T08:26:41.100Z,26.00
2019-04-30T08:27:41.107Z,26.10
2019-04-30T08:28:41.118Z,27.40
2019-04-30T08:29:41.128Z,26.90
2019-04-30T08:30:41.138Z,25.70
2019-04-30T08:31:41.144Z,25.90
2019-04-30T08:32:41.149Z,25.60
2019-04-30T08:33:41.164Z,23.50
2019-04-30T08:34:41.171Z,23.10
2019-04-30T08:35:41.187Z,23.70
2019-04-30T08:36:41.194Z,23.10
2019-04-30T08:37:41.197Z,22.90
2019-04-30T08:38:41.208Z,24.30
2019-04-30T08:39:41.217Z,22.80
2019-04-30T08:40:53.362Z,25.80
2019-04-30T08:41:41.241Z,24.00
2019-04-30T08:42:41.251Z,23.90
2019-04-30T08:43:41.260Z,24.70
2019-04-30T08:44:41.270Z,24.10
2019-04-30T08:45:41.276Z,24.90
2019-04-30T08:46:41.287Z,24.20
2019-04-30T08:47:41.306Z,24.00
2019-04-30T08:48:50.185Z,23.20
2019-04-30T08:49:41.602Z,24.10
2019-04-30T08:50:41.369Z,22.70
2019-04-30T08:51:41.630Z,23.20
2019-04-30T08:52:41.380Z,22.80
2019-04-30T08:53:41.434Z,22.60
2019-04-30T08:54:41.387Z,22.90
2019-04-30T08:55:41.398Z,22.60
2019-04-30T08:56:41.411Z,22.20
2019-04-30T08:57:41.429Z,22.00
2019-04-30T08:58:41.430Z,21.10
2019-04-30T08:59:41.441Z,21.20
2019-04-30T09:00:41.451Z,21.50
2019-04-30T09:01:41.468Z,22.00
2019-04-30T09:02:41.481Z,22.20
2019-04-30T09:03:41.491Z,22.30
2019-04-30T09:04:41.505Z,22.20
2019-04-30T09:05:41.520Z,23.00
2019-04-30T09:06:41.534Z,23.60
2019-04-30T09:07:41.549Z,23.30
2019-04-30T09:08:41.563Z,24.00
2019-04-30T09:09:44.496Z,23.10
2019-04-30T09:10:41.584Z,21.30
2019-04-30T09:11:51.741Z,22.20
2019-04-30T09:12:41.610Z,23.10
2019-04-30T09:13:41.649Z,22.80
2019-04-30T09:14:41.635Z,22.70
2019-04-30T09:15:41.651Z,22.60
2019-04-30T09:16:41.679Z,23.00
2019-04-30T09:17:41.673Z,22.00
2019-04-30T09:18:41.685Z,21.70
2019-04-30T09:19:41.705Z,21.80
2019-04-30T09:20:41.717Z,21.90
2019-04-30T09:21:41.727Z,22.40
2019-04-30T09:22:41.739Z,22.50
2019-04-30T09:23:49.413Z,22.80
2019-04-30T09:24:41.766Z,22.90
2019-04-30T09:25:41.782Z,22.20
2019-04-30T09:26:41.796Z,21.80
2019-04-30T09:27:41.811Z,22.00
2019-04-30T09:28:41.826Z,23.00
2019-04-30T09:29:44.519Z,22.00
2019-04-30T09:30:41.850Z,21.10
2019-04-30T09:31:41.868Z,20.40
2019-04-30T09:32:41.883Z,21.80
2019-04-30T09:33:41.901Z,21.30
2019-04-30T09:34:41.916Z,21.40
2019-04-30T09:35:41.927Z,21.80
2019-04-30T09:36:41.944Z,22.50
2019-04-30T09:37:41.997Z,22.10
2019-04-30T09:38:41.979Z,22.00
2019-04-30T09:39:41.989Z,20.80
2019-04-30T09:40:42.004Z,21.10
2019-04-30T09:41:42.013Z,21.30
2019-04-30T09:42:42.029Z,21.70
2019-04-30T09:43:42.045Z,21.50
2019-04-30T09:44:42.061Z,21.70
2019-04-30T09:45:42.079Z,20.50
2019-04-30T09:46:42.094Z,20.30
2019-04-30T09:47:42.197Z,20.20
2019-04-30T09:48:42.132Z,21.40
2019-04-30T09:49:42.138Z,20.40
2019-04-30T09:50:42.336Z,20.90
2019-04-30T09:51:42.447Z,20.50
2019-04-30T09:52:42.622Z,20.60
2019-04-30T09:53:42.201Z,19.90
2019-04-30T09:54:42.235Z,21.20
2019-04-30T09:55:42.229Z,21.50
2019-04-30T09:56:42.245Z,21.20
2019-04-30T09:57:42.265Z,20.50
2019-04-30T09:58:42.283Z,20.50
2019-04-30T09:59:42.298Z,20.80
2019-04-30T10:00:42.314Z,21.70
2019-04-30T10:01:42.329Z,21.70
2019-04-30T10:02:42.340Z,21.00
2019-04-30T10:03:42.889Z,20.10
2019-04-30T10:04:42.820Z,21.70
2019-04-30T10:05:42.388Z,22.10
2019-04-30T10:06:42.401Z,20.60
2019-04-30T10:07:42.412Z,21.20
2019-04-30T10:08:48.407Z,20.80
2019-04-30T10:09:42.444Z,20.40
2019-04-30T10:10:42.459Z,21.50
2019-04-30T10:11:42.470Z,20.80
2019-04-30T10:12:42.488Z,21.10
2019-04-30T10:13:42.492Z,20.60
2019-04-30T10:14:42.507Z,21.60
2019-04-30T10:15:42.525Z,21.60
2019-04-30T10:16:42.537Z,21.70
2019-04-30T10:17:42.555Z,21.70
2019-04-30T10:18:42.569Z,21.10
2019-04-30T10:19:42.581Z,21.10
2019-04-30T10:20:42.595Z,21.10
2019-04-30T10:21:42.606Z,21.80
2019-04-30T10:22:42.619Z,20.30
2019-04-30T10:23:42.639Z,21.90
2019-04-30T10:24:42.652Z,20.90
2019-04-30T10:25:42.665Z,20.30
2019-04-30T10:26:42.675Z,19.50
2019-04-30T10:27:42.716Z,19.10
2019-04-30T10:28:42.708Z,18.50
2019-04-30T10:29:42.723Z,19.10
2019-04-30T10:30:42.739Z,18.10
2019-04-30T10:31:42.753Z,18.60
2019-04-30T10:32:42.769Z,19.90
2019-04-30T10:33:42.777Z,18.70
2019-04-30T10:34:42.795Z,18.20
2019-04-30T10:35:42.804Z,18.30
2019-04-30T10:36:42.821Z,19.20
2019-04-30T10:37:42.841Z,18.90
2019-04-30T10:38:42.853Z,17.90
2019-04-30T10:39:42.906Z,17.50
2019-04-30T10:40:42.881Z,17.30
2019-04-30T10:41:42.898Z,17.10
2019-04-30T10:42:42.912Z,19.30
2019-04-30T10:43:42.928Z,18.20
2019-04-30T10:44:42.943Z,18.20
2019-04-30T10:45:42.954Z,19.50
2019-04-30T10:46:42.968Z,19.10
2019-04-30T10:47:42.985Z,19.50
2019-04-30T10:48:43.453Z,19.70
2019-04-30T10:49:43.021Z,22.50
2019-04-30T10:50:43.029Z,21.50
2019-04-30T10:51:43.041Z,22.10
2019-04-30T10:52:43.054Z,20.80
2019-04-30T10:53:43.065Z,21.70
2019-04-30T10:54:43.076Z,20.40
2019-04-30T10:55:43.097Z,19.70
2019-04-30T10:56:43.110Z,19.40
2019-04-30T10:57:43.117Z,19.70
2019-04-30T10:58:43.154Z,19.60
2019-04-30T10:59:43.149Z,19.90
2019-04-30T11:00:43.162Z,19.30
2019-04-30T11:01:43.179Z,17.60
2019-04-30T11:02:43.193Z,18.80
2019-04-30T11:03:43.209Z,18.70
2019-04-30T11:04:43.221Z,18.30
2019-04-30T11:05:43.229Z,18.50
2019-04-30T11:06:43.243Z,18.50
2019-04-30T11:07:43.254Z,18.60
2019-04-30T11:08:43.268Z,17.40
2019-04-30T11:09:43.323Z,18.20
2019-04-30T11:10:43.299Z,19.40
2019-04-30T11:11:43.308Z,19.80
2019-04-30T11:12:43.319Z,20.20
2019-04-30T11:13:43.353Z,21.30
2019-04-30T11:14:43.349Z,21.80
2019-04-30T11:15:43.381Z,19.90
2019-04-30T11:16:43.543Z,20.00
2019-04-30T11:17:43.597Z,20.90
2019-04-30T11:18:43.608Z,21.20
2019-04-30T11:19:43.600Z,21.20
2019-04-30T11:20:43.671Z,21.30
2019-04-30T11:21:43.576Z,20.10
2019-04-30T11:22:43.621Z,19.30
2019-04-30T11:23:43.719Z,20.60
2019-04-30T11:24:56.505Z,19.30
2019-04-30T11:25:44.038Z,19.80
2019-04-30T11:26:44.494Z,20.80
2019-04-30T11:27:44.063Z,19.40
2019-04-30T11:28:43.749Z,19.20
2019-04-30T11:29:43.768Z,19.30
2019-04-30T11:30:43.749Z,21.60
2019-04-30T11:31:43.709Z,19.50
2019-04-30T11:32:43.717Z,19.30
2019-04-30T11:33:43.778Z,18.20
2019-04-30T11:34:43.566Z,18.40
2019-04-30T11:35:43.575Z,16.90
2019-04-30T11:36:43.580Z,17.00
2019-04-30T11:37:43.582Z,16.20
2019-04-30T11:38:43.588Z,17.40
2019-04-30T11:39:43.599Z,16.10
2019-04-30T11:40:43.605Z,16.90
2019-04-30T11:41:43.615Z,17.50
2019-04-30T11:42:43.622Z,18.80
2019-04-30T11:43:43.623Z,18.10
2019-04-30T11:44:43.630Z,17.10
2019-04-30T11:45:43.638Z,17.80
2019-04-30T11:46:43.645Z,17.60
2019-04-30T11:47:52.995Z,18.30
2019-04-30T11:48:43.652Z,20.90
2019-04-30T11:49:43.653Z,19.70
2019-04-30T11:50:43.659Z,20.30
2019-04-30T11:51:43.662Z,21.30
2019-04-30T11:52:43.666Z,21.20
2019-04-30T11:53:43.674Z,20.40
2019-04-30T11:54:51.301Z,20.40
2019-04-30T11:55:43.686Z,20.80
2019-04-30T11:56:43.691Z,20.30
2019-04-30T11:57:43.691Z,19.30
2019-04-30T11:58:43.695Z,19.90
2019-04-30T11:59:43.701Z,19.40
2019-04-30T12:00:43.703Z,19.60
2019-04-30T12:01:43.703Z,19.50
2019-04-30T12:02:43.707Z,19.70
2019-04-30T12:03:43.707Z,19.90
2019-04-30T12:04:43.709Z,20.50
2019-04-30T12:05:43.720Z,19.60
2019-04-30T12:06:43.720Z,19.60
2019-04-30T12:07:43.725Z,20.20
2019-04-30T12:08:43.727Z,19.40
2019-04-30T12:09:43.726Z,19.80
2019-04-30T12:10:43.727Z,19.10
2019-04-30T12:11:43.732Z,20.30
2019-04-30T12:12:43.736Z,18.80
2019-04-30T12:13:43.741Z,18.90
2019-04-30T12:14:43.745Z,19.10
2019-04-30T12:15:43.743Z,18.50
2019-04-30T12:16:43.745Z,17.90
2019-04-30T12:17:43.750Z,18.60
2019-04-30T12:18:43.754Z,17.40
2019-04-30T12:19:43.754Z,17.50
2019-04-30T12:20:43.755Z,17.60
2019-04-30T12:21:43.754Z,17.30
2019-04-30T12:22:43.756Z,17.40
2019-04-30T12:23:43.761Z,18.30
2019-04-30T12:24:43.764Z,18.00
2019-04-30T12:25:43.772Z,19.20
2019-04-30T12:26:43.771Z,19.20
2019-04-30T12:27:43.773Z,20.60
2019-04-30T12:28:43.775Z,20.60
2019-04-30T12:29:43.771Z,19.80
2019-04-30T12:30:43.774Z,19.50
2019-04-30T12:31:43.781Z,20.50
2019-04-30T12:32:43.784Z,20.00
2019-04-30T12:33:43.785Z,19.60
2019-04-30T12:34:43.787Z,20.80
2019-04-30T12:35:43.789Z,21.10
2019-04-30T12:36:43.792Z,20.40
2019-04-30T12:37:43.795Z,19.90
2019-04-30T12:38:43.798Z,19.30
2019-04-30T12:39:43.799Z,18.90
2019-04-30T12:40:43.808Z,18.30
2019-04-30T12:41:43.800Z,18.50
2019-04-30T12:42:43.803Z,20.20
2019-04-30T12:43:43.802Z,19.60
2019-04-30T12:44:43.804Z,20.40
2019-04-30T12:45:43.810Z,18.10
2019-04-30T12:46:43.812Z,19.00
2019-04-30T12:47:43.812Z,18.20
2019-04-30T12:48:43.815Z,18.00
2019-04-30T12:49:43.819Z,19.00
2019-04-30T12:50:43.822Z,18.10
2019-04-30T12:51:45.935Z,18.30
2019-04-30T12:52:43.828Z,18.40